Aérodrome :
LOGIN :

S'inscrire | Disclaimer

   EN    FR    IT 

 










Légende :    VFR   VFR Marginal   IFR   IFR Intensif   IFR Très Intensif
Visi : 
Plafond : 
>= 8 km
>= 3000ft
5 à 8 km
1000 à 3000 ft
1500m à 5 km
500 à 1000 ft
800 à 1500m
200 à 500 ft
< 800m
< 200 ft
Symboles :   Orages  Brouillard  Fortes neiges  Fortes précipitations  Vent > 20 kt
SIGMETs :   Divers  Orages  Givrage  Turbulence  Onde Orograph.  Cendres Volcan.






- Altitude de l'aérodrome : 158 ft
- Code IATA : QAR


EHDL - Deelen Airbase

DERNIER METAR :
  • 022155Z AUTO 25003KT 220V340 9999 BKN077 OVC083 19/11 Q1011 BLU

METARs EXPIRÉS :
  • 022125Z AUTO 28004KT 310V020 9999 OVC078 20/11 Q1011 BLU
  • 022055Z AUTO 30005KT 300V020 9999 BKN079 OVC190 20/10 Q1011 BLU
  • 022025Z AUTO 31005KT 260V350 9999 OVC190 21/10 Q1012 BLU
  • 021955Z AUTO 30005KT 260V350 9999 OVC190 22/10 Q1012 BLU
  • 021925Z AUTO 30006KT 250V010 9999 OVC190 23/11 Q1012 BLU

Prévision TAF périmée.



MET'MAP, la Météo Aéronautique d'un coup d'oeil ! - Copyright ORBIFLY Décembre 2007 - Disclaimer

ORBIFLY MET'MAP TEAM :

Programmation & Développement : Alexandra Zaïnal
Sur une idée originale de : Baudouin d'Aumeries
Assistance à la programmation : Marc-Olivier Méhu
Soutien technique & logistique : Manuel Goepfert

Contact : metmap@orbifly.com




SOURCES & CREDITS :

   NOAA